sensor_id;sensor_type;location;lat;lon;timestamp;temperature;humidity
20985;DHT22;10651;47.552;7.606;2024-01-15T06:36:39;3.10;99.90
20985;DHT22;10651;47.552;7.606;2024-01-15T06:39:05;3.10;99.90
20985;DHT22;10651;47.552;7.606;2024-01-15T06:41:31;3.10;99.90
20985;DHT22;10651;47.552;7.606;2024-01-15T06:43:56;3.20;99.90
20985;DHT22;10651;47.552;7.606;2024-01-15T06:46:23;3.60;99.90
20985;DHT22;10651;47.552;7.606;2024-01-15T06:48:49;3.70;99.90
20985;DHT22;10651;47.552;7.606;2024-01-15T06:51:15;3.50;99.90
20985;DHT22;10651;47.552;7.606;2024-01-15T06:53:41;3.40;99.90
20985;DHT22;10651;47.552;7.606;2024-01-15T06:56:07;3.30;99.90
20985;DHT22;10651;47.552;7.606;2024-01-15T06:58:33;3.20;99.90
20985;DHT22;10651;47.552;7.606;2024-01-15T07:00:59;3.20;99.90
20985;DHT22;10651;47.552;7.606;2024-01-15T07:03:25;3.10;99.90
20985;DHT22;10651;47.552;7.606;2024-01-15T07:05:50;3.10;99.90
20985;DHT22;10651;47.552;7.606;2024-01-15T07:08:16;3.20;99.90
20985;DHT22;10651;47.552;7.606;2024-01-15T07:10:42;3.20;99.90
20985;DHT22;10651;47.552;7.606;2024-01-15T07:13:08;3.20;99.90
20985;DHT22;10651;47.552;7.606;2024-01-15T07:15:34;3.20;99.90
20985;DHT22;10651;47.552;7.606;2024-01-15T07:17:59;3.20;99.90
20985;DHT22;10651;47.552;7.606;2024-01-15T07:20:25;3.10;99.90
20985;DHT22;10651;47.552;7.606;2024-01-15T07:22:51;3.20;99.90
20985;DHT22;10651;47.552;7.606;2024-01-15T07:25:17;3.10;99.90
20985;DHT22;10651;47.552;7.606;2024-01-15T07:27:42;3.10;99.90
20985;DHT22;10651;47.552;7.606;2024-01-15T07:30:11;3.10;99.90
20985;DHT22;10651;47.552;7.606;2024-01-15T07:32:37;3.10;99.90
20985;DHT22;10651;47.552;7.606;2024-01-15T07:35:03;3.10;99.90
20985;DHT22;10651;47.552;7.606;2024-01-15T07:37:29;3.10;99.90
20985;DHT22;10651;47.552;7.606;2024-01-15T07:40:13;3.10;99.90
20985;DHT22;10651;47.552;7.606;2024-01-15T07:42:39;3.10;99.90
20985;DHT22;10651;47.552;7.606;2024-01-15T07:45:05;3.10;99.90
20985;DHT22;10651;47.552;7.606;2024-01-15T07:47:31;3.10;99.90
20985;DHT22;10651;47.552;7.606;2024-01-15T07:49:57;3.20;99.90
20985;DHT22;10651;47.552;7.606;2024-01-15T07:52:23;3.20;99.90
20985;DHT22;10651;47.552;7.606;2024-01-15T07:54:48;3.20;99.90
20985;DHT22;10651;47.552;7.606;2024-01-15T07:57:39;3.20;99.90
20985;DHT22;10651;47.552;7.606;2024-01-15T08:00:05;3.20;99.90
20985;DHT22;10651;47.552;7.606;2024-01-15T08:02:31;3.20;99.90
20985;DHT22;10651;47.552;7.606;2024-01-15T08:04:59;3.30;99.90
20985;DHT22;10651;47.552;7.606;2024-01-15T08:07:26;3.30;99.90
20985;DHT22;10651;47.552;7.606;2024-01-15T08:09:52;3.30;99.90
20985;DHT22;10651;47.552;7.606;2024-01-15T08:12:18;3.30;99.90
20985;DHT22;10651;47.552;7.606;2024-01-15T08:14:44;3.40;99.90
20985;DHT22;10651;47.552;7.606;2024-01-15T08:17:10;3.40;99.90
20985;DHT22;10651;47.552;7.606;2024-01-15T08:19:36;3.30;99.90
20985;DHT22;10651;47.552;7.606;2024-01-15T08:22:02;3.40;99.90
20985;DHT22;10651;47.552;7.606;2024-01-15T08:24:28;3.40;99.90
20985;DHT22;10651;47.552;7.606;2024-01-15T08:26:54;3.40;99.90
20985;DHT22;10651;47.552;7.606;2024-01-15T08:29:21;3.50;99.90
20985;DHT22;10651;47.552;7.606;2024-01-15T08:31:48;3.50;99.90
20985;DHT22;10651;47.552;7.606;2024-01-15T08:34:13;3.50;99.90
20985;DHT22;10651;47.552;7.606;2024-01-15T08:36:39;3.60;99.90
20985;DHT22;10651;47.552;7.606;2024-01-15T08:39:06;3.60;99.90
20985;DHT22;10651;47.552;7.606;2024-01-15T08:41:32;3.70;99.90
20985;DHT22;10651;47.552;7.606;2024-01-15T08:43:58;3.70;99.90
20985;DHT22;10651;47.552;7.606;2024-01-15T08:46:24;3.80;99.90
20985;DHT22;10651;47.552;7.606;2024-01-15T08:48:50;3.80;99.90
20985;DHT22;10651;47.552;7.606;2024-01-15T08:51:16;3.90;99.90
20985;DHT22;10651;47.552;7.606;2024-01-15T08:53:44;4.00;99.90
20985;DHT22;10651;47.552;7.606;2024-01-15T08:56:09;4.10;99.90
20985;DHT22;10651;47.552;7.606;2024-01-15T08:58:36;4.20;99.90
20985;DHT22;10651;47.552;7.606;2024-01-15T09:01:02;4.40;99.90
20985;DHT22;10651;47.552;7.606;2024-01-15T09:03:28;4.60;99.90
20985;DHT22;10651;47.552;7.606;2024-01-15T09:05:54;4.80;99.90
20985;DHT22;10651;47.552;7.606;2024-01-15T09:08:20;5.60;99.90
20985;DHT22;10651;47.552;7.606;2024-01-15T09:10:46;6.50;99.90
20985;DHT22;10651;47.552;7.606;2024-01-15T09:13:11;6.70;99.90
20985;DHT22;10651;47.552;7.606;2024-01-15T09:15:38;7.10;99.90
20985;DHT22;10651;47.552;7.606;2024-01-15T09:18:04;7.60;99.90
20985;DHT22;10651;47.552;7.606;2024-01-15T09:20:30;8.00;99.90
20985;DHT22;10651;47.552;7.606;2024-01-15T09:22:56;8.60;99.90
20985;DHT22;10651;47.552;7.606;2024-01-15T09:25:21;8.80;99.90
20985;DHT22;10651;47.552;7.606;2024-01-15T09:27:47;9.20;99.90
20985;DHT22;10651;47.552;7.606;2024-01-15T09:30:14;9.40;99.90
20985;DHT22;10651;47.552;7.606;2024-01-15T09:32:39;9.90;99.90
20985;DHT22;10651;47.552;7.606;2024-01-15T09:35:05;10.20;99.90
20985;DHT22;10651;47.552;7.606;2024-01-15T09:37:31;10.90;99.90
20985;DHT22;10651;47.552;7.606;2024-01-15T09:39:57;12.90;99.90
20985;DHT22;10651;47.552;7.606;2024-01-15T09:42:24;14.50;99.90
20985;DHT22;10651;47.552;7.606;2024-01-15T09:44:51;15.50;99.90
20985;DHT22;10651;47.552;7.606;2024-01-15T09:47:19;16.20;99.90
20985;DHT22;10651;47.552;7.606;2024-01-15T09:49:45;17.30;99.90
20985;DHT22;10651;47.552;7.606;2024-01-15T09:52:11;17.70;97.70
20985;DHT22;10651;47.552;7.606;2024-01-15T09:54:37;18.30;95.40
20985;DHT22;10651;47.552;7.606;2024-01-15T09:57:10;18.60;94.10
20985;DHT22;10651;47.552;7.606;2024-01-15T09:59:46;20.10;92.40
20985;DHT22;10651;47.552;7.606;2024-01-15T10:02:13;20.70;90.10
20985;DHT22;10651;47.552;7.606;2024-01-15T10:04:43;21.30;88.60
20985;DHT22;10651;47.552;7.606;2024-01-15T10:07:14;22.00;85.10
20985;DHT22;10651;47.552;7.606;2024-01-15T10:09:41;22.20;81.20
20985;DHT22;10651;47.552;7.606;2024-01-15T10:12:08;19.10;77.10
20985;DHT22;10651;47.552;7.606;2024-01-15T10:14:34;16.10;82.00
20985;DHT22;10651;47.552;7.606;2024-01-15T10:17:00;14.80;86.50
20985;DHT22;10651;47.552;7.606;2024-01-15T10:19:26;13.80;86.70
20985;DHT22;10651;47.552;7.606;2024-01-15T10:21:53;13.00;86.70
20985;DHT22;10651;47.552;7.606;2024-01-15T10:24:18;12.90;89.50
20985;DHT22;10651;47.552;7.606;2024-01-15T10:26:44;12.10;90.10
20985;DHT22;10651;47.552;7.606;2024-01-15T10:29:10;11.20;90.70
20985;DHT22;10651;47.552;7.606;2024-01-15T10:31:37;10.70;92.90
20985;DHT22;10651;47.552;7.606;2024-01-15T10:34:10;10.20;95.00
20985;DHT22;10651;47.552;7.606;2024-01-15T10:36:41;9.80;96.60
20985;DHT22;10651;47.552;7.606;2024-01-15T10:39:07;9.80;97.50
20985;DHT22;10651;47.552;7.606;2024-01-15T10:41:33;9.90;99.00
20985;DHT22;10651;47.552;7.606;2024-01-15T10:43:59;9.90;99.90
20985;DHT22;10651;47.552;7.606;2024-01-15T10:46:25;9.60;99.90
20985;DHT22;10651;47.552;7.606;2024-01-15T10:48:51;9.60;99.90
20985;DHT22;10651;47.552;7.606;2024-01-15T10:51:17;9.40;99.90
20985;DHT22;10651;47.552;7.606;2024-01-15T10:53:44;8.90;99.90
20985;DHT22;10651;47.552;7.606;2024-01-15T10:56:11;8.70;99.90
20985;DHT22;10651;47.552;7.606;2024-01-15T10:58:39;8.60;99.90
20985;DHT22;10651;47.552;7.606;2024-01-15T11:01:06;8.20;99.90
20985;DHT22;10651;47.552;7.606;2024-01-15T11:03:32;8.00;99.90
20985;DHT22;10651;47.552;7.606;2024-01-15T11:05:59;7.90;99.90
20985;DHT22;10651;47.552;7.606;2024-01-15T11:08:25;7.80;99.90
20985;DHT22;10651;47.552;7.606;2024-01-15T11:10:52;9.50;99.90
20985;DHT22;10651;47.552;7.606;2024-01-15T11:13:22;11.20;99.90
20985;DHT22;10651;47.552;7.606;2024-01-15T11:16:06;11.60;99.90
20985;DHT22;10651;47.552;7.606;2024-01-15T11:29:10;15.50;99.90
20985;DHT22;10651;47.552;7.606;2024-01-15T11:34:06;13.40;99.90
20985;DHT22;10651;47.552;7.606;2024-01-15T11:42:02;18.70;96.80
20985;DHT22;10651;47.552;7.606;2024-01-15T11:44:31;20.50;95.00
20985;DHT22;10651;47.552;7.606;2024-01-15T11:50:01;18.70;92.20
20985;DHT22;10651;47.552;7.606;2024-01-15T11:52:33;19.00;91.80
20985;DHT22;10651;47.552;7.606;2024-01-15T11:55:12;19.50;92.70
20985;DHT22;10651;47.552;7.606;2024-01-15T11:57:50;19.90;91.10
20985;DHT22;10651;47.552;7.606;2024-01-15T12:00:16;16.00;91.90
20985;DHT22;10651;47.552;7.606;2024-01-15T12:02:43;13.50;94.50
20985;DHT22;10651;47.552;7.606;2024-01-15T12:05:10;12.40;96.30
20985;DHT22;10651;47.552;7.606;2024-01-15T12:07:42;11.40;98.10
20985;DHT22;10651;47.552;7.606;2024-01-15T12:10:11;10.60;99.40
20985;DHT22;10651;47.552;7.606;2024-01-15T12:15:29;9.10;99.90
20985;DHT22;10651;47.552;7.606;2024-01-15T12:18:00;8.30;99.90
20985;DHT22;10651;47.552;7.606;2024-01-15T12:20:31;7.90;99.90
20985;DHT22;10651;47.552;7.606;2024-01-15T12:22:59;7.50;99.90
20985;DHT22;10651;47.552;7.606;2024-01-15T12:25:25;7.50;99.90
20985;DHT22;10651;47.552;7.606;2024-01-15T12:27:54;7.60;99.90
20985;DHT22;10651;47.552;7.606;2024-01-15T12:30:20;7.50;99.90
20985;DHT22;10651;47.552;7.606;2024-01-15T12:32:47;7.30;99.90
20985;DHT22;10651;47.552;7.606;2024-01-15T12:35:13;6.90;99.90
20985;DHT22;10651;47.552;7.606;2024-01-15T12:37:40;6.70;99.90
20985;DHT22;10651;47.552;7.606;2024-01-15T12:40:08;6.70;99.90
20985;DHT22;10651;47.552;7.606;2024-01-15T12:42:44;6.90;99.90
20985;DHT22;10651;47.552;7.606;2024-01-15T12:45:11;6.90;99.90
20985;DHT22;10651;47.552;7.606;2024-01-15T12:47:38;6.90;99.90
20985;DHT22;10651;47.552;7.606;2024-01-15T12:50:09;6.70;99.90
20985;DHT22;10651;47.552;7.606;2024-01-15T12:52:35;6.60;99.90
20985;DHT22;10651;47.552;7.606;2024-01-15T12:55:04;6.60;99.90
20985;DHT22;10651;47.552;7.606;2024-01-15T12:57:30;6.50;99.90
20985;DHT22;10651;47.552;7.606;2024-01-15T12:59:59;6.50;99.90
20985;DHT22;10651;47.552;7.606;2024-01-15T13:02:25;6.60;99.90
20985;DHT22;10651;47.552;7.606;2024-01-15T13:04:51;6.60;99.90
20985;DHT22;10651;47.552;7.606;2024-01-15T13:07:17;6.50;99.90
20985;DHT22;10651;47.552;7.606;2024-01-15T13:09:43;6.60;99.90
20985;DHT22;10651;47.552;7.606;2024-01-15T13:12:09;6.60;99.90
20985;DHT22;10651;47.552;7.606;2024-01-15T13:14:37;6.50;99.90
20985;DHT22;10651;47.552;7.606;2024-01-15T13:17:04;6.40;99.90
20985;DHT22;10651;47.552;7.606;2024-01-15T13:19:32;6.40;99.90
20985;DHT22;10651;47.552;7.606;2024-01-15T13:21:59;6.40;99.90
20985;DHT22;10651;47.552;7.606;2024-01-15T13:24:25;6.50;99.90
20985;DHT22;10651;47.552;7.606;2024-01-15T13:26:51;6.50;99.90
20985;DHT22;10651;47.552;7.606;2024-01-15T13:29:17;6.50;99.90
20985;DHT22;10651;47.552;7.606;2024-01-15T13:31:43;6.70;99.90
20985;DHT22;10651;47.552;7.606;2024-01-15T13:34:11;6.90;99.90
20985;DHT22;10651;47.552;7.606;2024-01-15T13:36:37;6.70;99.90
20985;DHT22;10651;47.552;7.606;2024-01-15T13:39:04;6.60;99.90
20985;DHT22;10651;47.552;7.606;2024-01-15T13:41:34;6.60;99.90
20985;DHT22;10651;47.552;7.606;2024-01-15T13:44:00;6.60;99.90
20985;DHT22;10651;47.552;7.606;2024-01-15T13:46:26;6.50;99.90
20985;DHT22;10651;47.552;7.606;2024-01-15T13:48:52;6.20;99.90
20985;DHT22;10651;47.552;7.606;2024-01-15T13:51:18;5.90;99.90
20985;DHT22;10651;47.552;7.606;2024-01-15T13:53:44;6.00;99.90
20985;DHT22;10651;47.552;7.606;2024-01-15T13:56:10;6.00;99.90
20985;DHT22;10651;47.552;7.606;2024-01-15T13:58:36;5.90;99.90
20985;DHT22;10651;47.552;7.606;2024-01-15T14:01:03;5.80;99.90
20985;DHT22;10651;47.552;7.606;2024-01-15T14:03:31;5.80;99.90
20985;DHT22;10651;47.552;7.606;2024-01-15T14:05:57;5.70;99.90
20985;DHT22;10651;47.552;7.606;2024-01-15T14:08:23;5.70;99.90
20985;DHT22;10651;47.552;7.606;2024-01-15T14:10:49;5.60;99.90
20985;DHT22;10651;47.552;7.606;2024-01-15T14:13:15;5.50;99.90
20985;DHT22;10651;47.552;7.606;2024-01-15T14:15:41;5.30;99.90
20985;DHT22;10651;47.552;7.606;2024-01-15T14:18:07;5.40;99.90
20985;DHT22;10651;47.552;7.606;2024-01-15T14:20:33;5.50;99.90
20985;DHT22;10651;47.552;7.606;2024-01-15T14:22:58;5.50;99.90
20985;DHT22;10651;47.552;7.606;2024-01-15T14:25:24;5.50;99.90
20985;DHT22;10651;47.552;7.606;2024-01-15T14:27:50;5.60;99.90
20985;DHT22;10651;47.552;7.606;2024-01-15T14:30:16;5.90;99.90
20985;DHT22;10651;47.552;7.606;2024-01-15T14:32:42;6.30;99.90
20985;DHT22;10651;47.552;7.606;2024-01-15T14:35:09;6.20;99.90
20985;DHT22;10651;47.552;7.606;2024-01-15T14:37:41;6.10;99.90
20985;DHT22;10651;47.552;7.606;2024-01-15T14:40:07;5.90;99.90
20985;DHT22;10651;47.552;7.606;2024-01-15T14:42:34;5.70;99.90
20985;DHT22;10651;47.552;7.606;2024-01-15T14:45:00;5.70;99.90
20985;DHT22;10651;47.552;7.606;2024-01-15T14:47:27;5.60;99.90
20985;DHT22;10651;47.552;7.606;2024-01-15T14:49:53;5.70;99.90
20985;DHT22;10651;47.552;7.606;2024-01-15T14:52:18;5.50;99.90
20985;DHT22;10651;47.552;7.606;2024-01-15T14:54:45;5.70;99.90
20985;DHT22;10651;47.552;7.606;2024-01-15T14:57:13;5.60;99.90
20985;DHT22;10651;47.552;7.606;2024-01-15T14:59:39;5.50;99.90
20985;DHT22;10651;47.552;7.606;2024-01-15T15:02:05;5.40;99.90
20985;DHT22;10651;47.552;7.606;2024-01-15T15:04:30;5.50;99.90
20985;DHT22;10651;47.552;7.606;2024-01-15T15:06:56;5.40;99.90
20985;DHT22;10651;47.552;7.606;2024-01-15T15:09:22;5.40;99.90
20985;DHT22;10651;47.552;7.606;2024-01-15T15:11:48;5.30;99.90
20985;DHT22;10651;47.552;7.606;2024-01-15T15:14:13;5.20;99.90
20985;DHT22;10651;47.552;7.606;2024-01-15T15:16:39;5.20;99.90
20985;DHT22;10651;47.552;7.606;2024-01-15T15:19:05;5.20;99.90
20985;DHT22;10651;47.552;7.606;2024-01-15T15:21:30;5.20;99.90
20985;DHT22;10651;47.552;7.606;2024-01-15T15:23:56;5.10;99.90
20985;DHT22;10651;47.552;7.606;2024-01-15T15:26:22;5.10;99.90
20985;DHT22;10651;47.552;7.606;2024-01-15T15:28:47;5.10;99.90
20985;DHT22;10651;47.552;7.606;2024-01-15T15:31:14;5.10;99.90
20985;DHT22;10651;47.552;7.606;2024-01-15T15:33:40;5.10;99.90
20985;DHT22;10651;47.552;7.606;2024-01-15T15:36:06;5.10;99.90
20985;DHT22;10651;47.552;7.606;2024-01-15T15:38:32;5.10;99.90
20985;DHT22;10651;47.552;7.606;2024-01-15T15:40:58;5.00;99.90
20985;DHT22;10651;47.552;7.606;2024-01-15T15:43:25;5.00;99.90
20985;DHT22;10651;47.552;7.606;2024-01-15T15:45:51;4.80;99.90
20985;DHT22;10651;47.552;7.606;2024-01-15T15:48:17;4.80;99.90
20985;DHT22;10651;47.552;7.606;2024-01-15T15:50:42;4.90;99.90
20985;DHT22;10651;47.552;7.606;2024-01-15T15:53:08;4.80;99.90
20985;DHT22;10651;47.552;7.606;2024-01-15T15:55:34;4.80;99.90
20985;DHT22;10651;47.552;7.606;2024-01-15T15:58:02;4.80;99.90
20985;DHT22;10651;47.552;7.606;2024-01-15T16:00:29;4.90;99.90
20985;DHT22;10651;47.552;7.606;2024-01-15T16:02:55;4.70;99.90
20985;DHT22;10651;47.552;7.606;2024-01-15T16:05:21;4.80;99.90
20985;DHT22;10651;47.552;7.606;2024-01-15T16:07:47;4.70;99.90
20985;DHT22;10651;47.552;7.606;2024-01-15T16:10:14;4.60;99.90
20985;DHT22;10651;47.552;7.606;2024-01-15T16:12:40;4.60;99.90
20985;DHT22;10651;47.552;7.606;2024-01-15T16:15:22;4.70;99.90
20985;DHT22;10651;47.552;7.606;2024-01-15T16:17:49;4.80;99.90
20985;DHT22;10651;47.552;7.606;2024-01-15T16:20:16;4.60;99.90
20985;DHT22;10651;47.552;7.606;2024-01-15T16:22:42;4.40;99.90
20985;DHT22;10651;47.552;7.606;2024-01-15T16:25:09;4.50;99.90
20985;DHT22;10651;47.552;7.606;2024-01-15T16:27:35;4.50;99.90
20985;DHT22;10651;47.552;7.606;2024-01-15T16:30:00;4.50;99.90
20985;DHT22;10651;47.552;7.606;2024-01-15T16:32:26;4.50;99.90
20985;DHT22;10651;47.552;7.606;2024-01-15T16:34:52;4.60;99.90
20985;DHT22;10651;47.552;7.606;2024-01-15T16:37:18;4.60;99.90
20985;DHT22;10651;47.552;7.606;2024-01-15T16:39:44;4.50;99.90
20985;DHT22;10651;47.552;7.606;2024-01-15T16:42:10;4.30;99.90
20985;DHT22;10651;47.552;7.606;2024-01-15T16:44:36;4.40;99.90
20985;DHT22;10651;47.552;7.606;2024-01-15T16:47:03;4.30;99.90
20985;DHT22;10651;47.552;7.606;2024-01-15T16:49:29;4.30;99.90
20985;DHT22;10651;47.552;7.606;2024-01-15T16:51:55;4.40;99.90
20985;DHT22;10651;47.552;7.606;2024-01-15T16:54:21;4.40;99.90
20985;DHT22;10651;47.552;7.606;2024-01-15T16:56:47;4.30;99.90
20985;DHT22;10651;47.552;7.606;2024-01-15T16:59:13;4.30;99.90
20985;DHT22;10651;47.552;7.606;2024-01-15T17:01:38;4.30;99.90
20985;DHT22;10651;47.552;7.606;2024-01-15T17:04:04;4.30;99.90
20985;DHT22;10651;47.552;7.606;2024-01-15T17:06:31;4.40;99.90
20985;DHT22;10651;47.552;7.606;2024-01-15T17:08:57;4.30;99.90
20985;DHT22;10651;47.552;7.606;2024-01-15T17:11:23;4.30;99.90
20985;DHT22;10651;47.552;7.606;2024-01-15T17:13:50;4.30;99.90
20985;DHT22;10651;47.552;7.606;2024-01-15T17:16:16;4.20;99.90
20985;DHT22;10651;47.552;7.606;2024-01-15T17:18:43;4.30;99.90
20985;DHT22;10651;47.552;7.606;2024-01-15T17:21:08;4.30;99.90
20985;DHT22;10651;47.552;7.606;2024-01-15T17:23:34;4.30;99.90
20985;DHT22;10651;47.552;7.606;2024-01-15T17:26:09;4.20;99.90
20985;DHT22;10651;47.552;7.606;2024-01-15T17:28:39;4.20;99.90
20985;DHT22;10651;47.552;7.606;2024-01-15T17:31:05;4.30;99.90
20985;DHT22;10651;47.552;7.606;2024-01-15T17:33:30;4.30;99.90
20985;DHT22;10651;47.552;7.606;2024-01-15T17:35:57;4.20;99.90
20985;DHT22;10651;47.552;7.606;2024-01-15T17:38:23;4.30;99.90
20985;DHT22;10651;47.552;7.606;2024-01-15T17:40:49;4.30;99.90
20985;DHT22;10651;47.552;7.606;2024-01-15T17:43:16;4.30;99.90
20985;DHT22;10651;47.552;7.606;2024-01-15T17:45:42;4.50;99.90
20985;DHT22;10651;47.552;7.606;2024-01-15T17:48:08;4.60;99.90
20985;DHT22;10651;47.552;7.606;2024-01-15T17:50:37;4.40;99.90
20985;DHT22;10651;47.552;7.606;2024-01-15T17:53:04;4.40;99.90
20985;DHT22;10651;47.552;7.606;2024-01-15T17:55:29;4.40;99.90
20985;DHT22;10651;47.552;7.606;2024-01-15T17:57:55;4.20;99.90
20985;DHT22;10651;47.552;7.606;2024-01-15T18:00:24;4.10;99.90
20985;DHT22;10651;47.552;7.606;2024-01-15T18:02:50;3.90;99.90
20985;DHT22;10651;47.552;7.606;2024-01-15T18:05:18;4.10;99.90
20985;DHT22;10651;47.552;7.606;2024-01-15T18:07:44;4.40;99.90
20985;DHT22;10651;47.552;7.606;2024-01-15T18:13:39;4.20;99.90
20985;DHT22;10651;47.552;7.606;2024-01-15T18:16:08;4.30;99.90
20985;DHT22;10651;47.552;7.606;2024-01-15T18:18:33;4.30;99.90
20985;DHT22;10651;47.552;7.606;2024-01-15T18:24:20;4.40;99.90
20985;DHT22;10651;47.552;7.606;2024-01-15T18:38:06;4.10;99.90
20985;DHT22;10651;47.552;7.606;2024-01-15T18:40:40;4.00;99.90
20985;DHT22;10651;47.552;7.606;2024-01-15T18:44:07;3.90;99.90
20985;DHT22;10651;47.552;7.606;2024-01-15T19:03:57;4.10;99.90
20985;DHT22;10651;47.552;7.606;2024-01-15T19:10:15;4.20;99.90
20985;DHT22;10651;47.552;7.606;2024-01-15T19:12:44;4.30;99.90
20985;DHT22;10651;47.552;7.606;2024-01-15T19:15:09;4.00;99.90
20985;DHT22;10651;47.552;7.606;2024-01-15T19:17:37;4.00;99.90
20985;DHT22;10651;47.552;7.606;2024-01-15T19:20:04;3.80;99.90
20985;DHT22;10651;47.552;7.606;2024-01-15T19:22:30;3.70;99.90
20985;DHT22;10651;47.552;7.606;2024-01-15T19:24:55;3.70;99.90
20985;DHT22;10651;47.552;7.606;2024-01-15T19:27:21;3.70;99.90
20985;DHT22;10651;47.552;7.606;2024-01-15T19:29:49;3.60;99.90
20985;DHT22;10651;47.552;7.606;2024-01-15T19:32:21;3.70;99.90
20985;DHT22;10651;47.552;7.606;2024-01-15T19:34:47;3.60;99.90
20985;DHT22;10651;47.552;7.606;2024-01-15T19:37:13;3.60;99.90
20985;DHT22;10651;47.552;7.606;2024-01-15T19:39:39;3.60;99.90
20985;DHT22;10651;47.552;7.606;2024-01-15T19:42:06;3.70;99.90
20985;DHT22;10651;47.552;7.606;2024-01-15T19:44:32;3.60;99.90
20985;DHT22;10651;47.552;7.606;2024-01-15T19:46:57;3.60;99.90
20985;DHT22;10651;47.552;7.606;2024-01-15T19:49:23;3.50;99.90
20985;DHT22;10651;47.552;7.606;2024-01-15T19:51:51;3.50;99.90
20985;DHT22;10651;47.552;7.606;2024-01-15T19:54:20;3.60;99.90
20985;DHT22;10651;47.552;7.606;2024-01-15T19:56:45;3.50;99.90
20985;DHT22;10651;47.552;7.606;2024-01-15T19:59:11;3.50;99.90
20985;DHT22;10651;47.552;7.606;2024-01-15T20:01:37;3.50;99.90
20985;DHT22;10651;47.552;7.606;2024-01-15T20:04:05;3.50;99.90
20985;DHT22;10651;47.552;7.606;2024-01-15T20:06:34;3.60;99.90
20985;DHT22;10651;47.552;7.606;2024-01-15T20:09:00;3.60;99.90
20985;DHT22;10651;47.552;7.606;2024-01-15T20:11:29;3.50;99.90
20985;DHT22;10651;47.552;7.606;2024-01-15T20:13:55;3.50;99.90
20985;DHT22;10651;47.552;7.606;2024-01-15T20:16:21;3.50;99.90
20985;DHT22;10651;47.552;7.606;2024-01-15T20:18:47;3.50;99.90
20985;DHT22;10651;47.552;7.606;2024-01-15T20:21:13;3.50;99.90
20985;DHT22;10651;47.552;7.606;2024-01-15T20:23:40;3.30;99.90
20985;DHT22;10651;47.552;7.606;2024-01-15T20:26:05;3.30;99.90
20985;DHT22;10651;47.552;7.606;2024-01-15T20:28:32;3.50;99.90
20985;DHT22;10651;47.552;7.606;2024-01-15T20:31:01;3.50;99.90
20985;DHT22;10651;47.552;7.606;2024-01-15T20:33:29;3.70;99.90
20985;DHT22;10651;47.552;7.606;2024-01-15T20:35:55;3.70;99.90
20985;DHT22;10651;47.552;7.606;2024-01-15T20:38:21;3.70;99.90
20985;DHT22;10651;47.552;7.606;2024-01-15T20:40:47;3.60;99.90
20985;DHT22;10651;47.552;7.606;2024-01-15T20:43:15;3.60;99.90
20985;DHT22;10651;47.552;7.606;2024-01-15T20:45:41;3.60;99.90
20985;DHT22;10651;47.552;7.606;2024-01-15T20:48:07;3.60;99.90
20985;DHT22;10651;47.552;7.606;2024-01-15T20:50:36;3.70;99.90
20985;DHT22;10651;47.552;7.606;2024-01-15T20:53:01;3.70;99.90
20985;DHT22;10651;47.552;7.606;2024-01-15T20:55:27;3.70;99.90
20985;DHT22;10651;47.552;7.606;2024-01-15T20:57:56;3.60;99.90
20985;DHT22;10651;47.552;7.606;2024-01-15T21:00:22;3.50;99.90
20985;DHT22;10651;47.552;7.606;2024-01-15T21:02:50;3.50;99.90
20985;DHT22;10651;47.552;7.606;2024-01-15T21:05:19;3.50;99.90
